Airfield :
LOGIN :

Register | Disclaimer

   EN    FR    IT 

 










Legend :    VFR   Marginal VFR   IFR   Intensive IFR   Very Intensive IFR
Visi :
Ceiling :
>= 8 km
>= 3000ft
5 to 8 km
1000 to 3000 ft
1500m to 5 km
500 to 1000 ft
800 to 1500m
200 to 500 ft
< 800m
< 200 ft
Symbols :   Thunderstorms  Fog  Heavy snow  Heavy precipitations  Wind > 20 kt
SIGMETs :     Misc.  Thunderstorms  Icing  Turbulence  Mountain Waves  Volcanic Ashes







- Airport Elevation : 236 ft
- IATA code : JSY


LGSO - Syros

CURRENT METAR :
  • 231850Z AUTO 36024G34KT //// -RA ////// 10/07 Q1017 RE//

EXPIRED METARs :
  • 231820Z AUTO 35023KT //// // ////// 10/08 Q1016 RE//
  • 231750Z AUTO 34025G35KT //// // ////// 10/08 Q1016 RE//
  • 231720Z AUTO 01025G36KT //// // ////// 10/08 Q1016 RE//
  • 231650Z AUTO 36020G30KT //// // ////// 11/09 Q1015 RE//
  • 231620Z 35013KT 9000 -RA SCT012 FEW018TCU SCT020 11/09 Q1015

TAF N/A
No reported NOTAMs for that airfield.
4 SIGMETs reported for the Athinai FIR (LGGG) :
 
Embedded thunderstorms
LGGG SIGMET 9 VALID 231500/231900 LGAT
LGGG ATHINAI FIR/UIR EMBD TS OBS S OF N3810 STNR NC=
Embedded thunderstorms
LGGG SIGMET 12 VALID 231900/232300 LGAT
LGGG ATHINAI FIR/UIR EMBD TS OBS S OF N3810 STNR NC=
Severe icing
LGGG SIGMET 11 VALID 231800/232200 LGAT
LGGG ATHINAI FIR/UIR SEV ICE FCST N OF LINE N3900 E02640 - N3640 E02220 - N3940 E02030 ABV SFC STNR NC=
Severe turbulence
LGGG SIGMET 10 VALID 231545/231945 LGAT
LGGG ATHINAI FIR SEV TURB FCST N OF LINE N3900 E02640 - N3550 E02320 - N3700 E01910 SFC/FL080 STNR NC=



MET'MAP, your aeronautical weather chart ! - Copyright ORBIFLY December 2007 - Disclaimer

ORBIFLY MET'MAP TEAM :

Programming & Development : Alexandra Zaïnal
Concept & Development : Baudouin d'Aumeries
Co-Development & Prog : Marc-Olivier Méhu
Technical & hardware support : Manuel Goepfert

Contact : metmap@orbifly.com




SOURCES & CREDITS :

   NOAA